sensor_id;sensor_type;location;lat;lon;timestamp;P1;durP1;ratioP1;P2;durP2;ratioP2
11346;SDS011;5728;42.722;23.258;2022-08-21T00:01:51;13.18;;;8.63;;
11346;SDS011;5728;42.722;23.258;2022-08-21T00:04:18;13.15;;;9.23;;
11346;SDS011;5728;42.722;23.258;2022-08-21T00:06:46;12.95;;;9.27;;
11346;SDS011;5728;42.722;23.258;2022-08-21T00:09:13;13.60;;;8.80;;
11346;SDS011;5728;42.722;23.258;2022-08-21T00:11:40;15.38;;;9.25;;
11346;SDS011;5728;42.722;23.258;2022-08-21T00:14:08;14.75;;;8.60;;
11346;SDS011;5728;42.722;23.258;2022-08-21T00:16:36;11.60;;;8.50;;
11346;SDS011;5728;42.722;23.258;2022-08-21T00:19:03;13.00;;;8.60;;
11346;SDS011;5728;42.722;23.258;2022-08-21T00:21:31;16.70;;;9.07;;
11346;SDS011;5728;42.722;23.258;2022-08-21T00:24:00;12.23;;;8.77;;
11346;SDS011;5728;42.722;23.258;2022-08-21T00:26:27;15.40;;;9.30;;
11346;SDS011;5728;42.722;23.258;2022-08-21T00:28:54;18.48;;;10.38;;
11346;SDS011;5728;42.722;23.258;2022-08-21T00:31:21;14.43;;;10.13;;
11346;SDS011;5728;42.722;23.258;2022-08-21T00:33:47;14.13;;;9.70;;
11346;SDS011;5728;42.722;23.258;2022-08-21T00:36:15;15.57;;;10.38;;
11346;SDS011;5728;42.722;23.258;2022-08-21T00:38:42;17.05;;;9.90;;
11346;SDS011;5728;42.722;23.258;2022-08-21T00:41:10;17.75;;;11.77;;
11346;SDS011;5728;42.722;23.258;2022-08-21T00:43:38;18.80;;;11.18;;
11346;SDS011;5728;42.722;23.258;2022-08-21T00:46:06;15.60;;;11.45;;
11346;SDS011;5728;42.722;23.258;2022-08-21T00:48:33;14.32;;;11.15;;
11346;SDS011;5728;42.722;23.258;2022-08-21T00:51:02;20.65;;;11.60;;
11346;SDS011;5728;42.722;23.258;2022-08-21T00:53:33;15.02;;;9.55;;
11346;SDS011;5728;42.722;23.258;2022-08-21T00:56:02;19.77;;;10.95;;
11346;SDS011;5728;42.722;23.258;2022-08-21T00:58:32;15.60;;;10.02;;
11346;SDS011;5728;42.722;23.258;2022-08-21T01:01:01;17.60;;;11.57;;
11346;SDS011;5728;42.722;23.258;2022-08-21T01:03:29;17.38;;;10.98;;
11346;SDS011;5728;42.722;23.258;2022-08-21T01:05:56;17.92;;;10.55;;
11346;SDS011;5728;42.722;23.258;2022-08-21T01:08:23;14.07;;;9.35;;
11346;SDS011;5728;42.722;23.258;2022-08-21T01:10:51;13.32;;;11.10;;
11346;SDS011;5728;42.722;23.258;2022-08-21T01:13:21;13.98;;;9.68;;
11346;SDS011;5728;42.722;23.258;2022-08-21T01:15:51;13.45;;;10.27;;
11346;SDS011;5728;42.722;23.258;2022-08-21T01:18:20;15.93;;;9.63;;
11346;SDS011;5728;42.722;23.258;2022-08-21T01:20:59;13.07;;;8.40;;
11346;SDS011;5728;42.722;23.258;2022-08-21T01:23:27;12.40;;;8.55;;
11346;SDS011;5728;42.722;23.258;2022-08-21T01:25:54;14.02;;;9.00;;
11346;SDS011;5728;42.722;23.258;2022-08-21T01:28:21;16.50;;;8.70;;
11346;SDS011;5728;42.722;23.258;2022-08-21T01:30:48;19.38;;;9.43;;
11346;SDS011;5728;42.722;23.258;2022-08-21T01:33:17;13.15;;;8.00;;
11346;SDS011;5728;42.722;23.258;2022-08-21T01:35:45;15.40;;;8.23;;
11346;SDS011;5728;42.722;23.258;2022-08-21T01:38:14;13.93;;;8.80;;
11346;SDS011;5728;42.722;23.258;2022-08-21T01:40:40;11.25;;;8.43;;
11346;SDS011;5728;42.722;23.258;2022-08-21T01:43:07;13.25;;;7.18;;
11346;SDS011;5728;42.722;23.258;2022-08-21T01:45:34;10.10;;;7.70;;
11346;SDS011;5728;42.722;23.258;2022-08-21T01:48:01;14.63;;;8.05;;
11346;SDS011;5728;42.722;23.258;2022-08-21T01:50:28;14.77;;;8.45;;
11346;SDS011;5728;42.722;23.258;2022-08-21T01:52:54;16.42;;;8.48;;
11346;SDS011;5728;42.722;23.258;2022-08-21T01:55:23;14.15;;;8.30;;
11346;SDS011;5728;42.722;23.258;2022-08-21T01:57:51;10.93;;;7.38;;
11346;SDS011;5728;42.722;23.258;2022-08-21T02:00:19;11.20;;;7.57;;
11346;SDS011;5728;42.722;23.258;2022-08-21T02:02:49;10.68;;;8.23;;
11346;SDS011;5728;42.722;23.258;2022-08-21T02:05:16;14.02;;;8.10;;
11346;SDS011;5728;42.722;23.258;2022-08-21T02:07:47;17.65;;;8.93;;
11346;SDS011;5728;42.722;23.258;2022-08-21T02:10:16;18.45;;;10.25;;
11346;SDS011;5728;42.722;23.258;2022-08-21T02:12:46;14.38;;;9.18;;
11346;SDS011;5728;42.722;23.258;2022-08-21T02:15:13;14.73;;;9.27;;
11346;SDS011;5728;42.722;23.258;2022-08-21T02:17:40;13.82;;;9.07;;
11346;SDS011;5728;42.722;23.258;2022-08-21T02:20:15;12.02;;;8.60;;
11346;SDS011;5728;42.722;23.258;2022-08-21T02:22:44;14.43;;;9.15;;
11346;SDS011;5728;42.722;23.258;2022-08-21T02:25:10;13.68;;;8.50;;
11346;SDS011;5728;42.722;23.258;2022-08-21T02:27:38;9.68;;;7.82;;
11346;SDS011;5728;42.722;23.258;2022-08-21T02:30:09;10.23;;;7.60;;
11346;SDS011;5728;42.722;23.258;2022-08-21T02:32:37;12.15;;;7.05;;
11346;SDS011;5728;42.722;23.258;2022-08-21T02:35:05;17.38;;;9.20;;
11346;SDS011;5728;42.722;23.258;2022-08-21T02:37:33;16.50;;;8.50;;
11346;SDS011;5728;42.722;23.258;2022-08-21T02:40:00;14.52;;;8.38;;
11346;SDS011;5728;42.722;23.258;2022-08-21T02:42:27;8.98;;;7.20;;
11346;SDS011;5728;42.722;23.258;2022-08-21T02:44:55;16.75;;;8.75;;
11346;SDS011;5728;42.722;23.258;2022-08-21T02:47:23;11.35;;;7.68;;
11346;SDS011;5728;42.722;23.258;2022-08-21T02:49:50;13.57;;;8.63;;
11346;SDS011;5728;42.722;23.258;2022-08-21T02:52:18;11.75;;;8.57;;
11346;SDS011;5728;42.722;23.258;2022-08-21T02:54:46;12.43;;;8.05;;
11346;SDS011;5728;42.722;23.258;2022-08-21T02:57:14;12.57;;;7.65;;
11346;SDS011;5728;42.722;23.258;2022-08-21T02:59:40;10.55;;;9.10;;
11346;SDS011;5728;42.722;23.258;2022-08-21T03:02:07;13.10;;;8.70;;
11346;SDS011;5728;42.722;23.258;2022-08-21T03:04:37;12.50;;;8.15;;
11346;SDS011;5728;42.722;23.258;2022-08-21T03:07:04;11.57;;;8.18;;
11346;SDS011;5728;42.722;23.258;2022-08-21T03:09:31;13.95;;;8.23;;
11346;SDS011;5728;42.722;23.258;2022-08-21T03:11:57;12.20;;;8.85;;
11346;SDS011;5728;42.722;23.258;2022-08-21T03:14:24;18.48;;;8.23;;
11346;SDS011;5728;42.722;23.258;2022-08-21T03:16:51;13.00;;;8.70;;
11346;SDS011;5728;42.722;23.258;2022-08-21T03:19:18;14.13;;;9.43;;
11346;SDS011;5728;42.722;23.258;2022-08-21T03:21:47;12.15;;;7.90;;
11346;SDS011;5728;42.722;23.258;2022-08-21T03:24:13;12.80;;;8.60;;
11346;SDS011;5728;42.722;23.258;2022-08-21T03:26:40;15.13;;;8.98;;
11346;SDS011;5728;42.722;23.258;2022-08-21T03:29:07;14.63;;;8.65;;
11346;SDS011;5728;42.722;23.258;2022-08-21T03:31:34;13.07;;;8.95;;
11346;SDS011;5728;42.722;23.258;2022-08-21T03:34:00;17.00;;;8.77;;
11346;SDS011;5728;42.722;23.258;2022-08-21T03:36:27;15.52;;;8.60;;
11346;SDS011;5728;42.722;23.258;2022-08-21T03:38:55;16.13;;;8.98;;
11346;SDS011;5728;42.722;23.258;2022-08-21T03:41:22;13.65;;;8.93;;
11346;SDS011;5728;42.722;23.258;2022-08-21T03:43:49;13.30;;;9.20;;
11346;SDS011;5728;42.722;23.258;2022-08-21T03:46:16;13.27;;;9.20;;
11346;SDS011;5728;42.722;23.258;2022-08-21T03:48:42;16.95;;;8.65;;
11346;SDS011;5728;42.722;23.258;2022-08-21T03:51:09;9.20;;;8.23;;
11346;SDS011;5728;42.722;23.258;2022-08-21T03:53:37;12.75;;;8.18;;
11346;SDS011;5728;42.722;23.258;2022-08-21T03:56:05;12.63;;;8.38;;
11346;SDS011;5728;42.722;23.258;2022-08-21T03:58:32;12.50;;;8.60;;
11346;SDS011;5728;42.722;23.258;2022-08-21T04:01:00;15.38;;;9.60;;
11346;SDS011;5728;42.722;23.258;2022-08-21T04:03:28;12.40;;;9.30;;
11346;SDS011;5728;42.722;23.258;2022-08-21T04:05:55;14.07;;;9.40;;
11346;SDS011;5728;42.722;23.258;2022-08-21T04:08:22;14.65;;;9.98;;
11346;SDS011;5728;42.722;23.258;2022-08-21T04:10:49;15.98;;;11.00;;
11346;SDS011;5728;42.722;23.258;2022-08-21T04:13:20;19.25;;;12.02;;
11346;SDS011;5728;42.722;23.258;2022-08-21T04:15:48;15.55;;;11.45;;
11346;SDS011;5728;42.722;23.258;2022-08-21T04:18:14;18.52;;;12.35;;
11346;SDS011;5728;42.722;23.258;2022-08-21T04:20:41;17.27;;;12.07;;
11346;SDS011;5728;42.722;23.258;2022-08-21T04:23:10;19.02;;;13.25;;
11346;SDS011;5728;42.722;23.258;2022-08-21T04:25:37;14.80;;;11.63;;
11346;SDS011;5728;42.722;23.258;2022-08-21T04:28:04;16.35;;;11.52;;
11346;SDS011;5728;42.722;23.258;2022-08-21T04:30:32;18.88;;;12.60;;
11346;SDS011;5728;42.722;23.258;2022-08-21T04:32:59;16.70;;;12.85;;
11346;SDS011;5728;42.722;23.258;2022-08-21T04:35:26;17.98;;;12.38;;
11346;SDS011;5728;42.722;23.258;2022-08-21T04:37:54;23.30;;;12.93;;
11346;SDS011;5728;42.722;23.258;2022-08-21T04:40:22;23.30;;;13.35;;
11346;SDS011;5728;42.722;23.258;2022-08-21T04:42:52;19.05;;;13.63;;
11346;SDS011;5728;42.722;23.258;2022-08-21T04:45:22;19.92;;;14.50;;
11346;SDS011;5728;42.722;23.258;2022-08-21T04:47:53;23.50;;;13.93;;
11346;SDS011;5728;42.722;23.258;2022-08-21T04:50:20;18.80;;;13.50;;
11346;SDS011;5728;42.722;23.258;2022-08-21T04:52:48;24.38;;;12.43;;
11346;SDS011;5728;42.722;23.258;2022-08-21T04:55:15;21.55;;;14.02;;
11346;SDS011;5728;42.722;23.258;2022-08-21T04:57:44;20.00;;;14.40;;
11346;SDS011;5728;42.722;23.258;2022-08-21T05:00:11;20.55;;;15.15;;
11346;SDS011;5728;42.722;23.258;2022-08-21T05:02:39;22.25;;;15.20;;
11346;SDS011;5728;42.722;23.258;2022-08-21T05:05:08;19.33;;;14.02;;
11346;SDS011;5728;42.722;23.258;2022-08-21T05:07:35;21.15;;;13.88;;
11346;SDS011;5728;42.722;23.258;2022-08-21T05:10:04;19.92;;;13.88;;
11346;SDS011;5728;42.722;23.258;2022-08-21T05:12:32;21.88;;;13.65;;
11346;SDS011;5728;42.722;23.258;2022-08-21T05:15:00;19.80;;;13.90;;
11346;SDS011;5728;42.722;23.258;2022-08-21T05:17:27;20.52;;;14.10;;
11346;SDS011;5728;42.722;23.258;2022-08-21T05:19:54;20.08;;;14.30;;
11346;SDS011;5728;42.722;23.258;2022-08-21T05:22:23;24.50;;;14.77;;
11346;SDS011;5728;42.722;23.258;2022-08-21T05:24:50;20.75;;;14.35;;
11346;SDS011;5728;42.722;23.258;2022-08-21T05:27:18;19.88;;;13.82;;
11346;SDS011;5728;42.722;23.258;2022-08-21T05:29:45;23.90;;;14.65;;
11346;SDS011;5728;42.722;23.258;2022-08-21T05:32:12;19.80;;;13.73;;
11346;SDS011;5728;42.722;23.258;2022-08-21T05:34:39;17.45;;;12.13;;
11346;SDS011;5728;42.722;23.258;2022-08-21T05:37:10;19.58;;;13.82;;
11346;SDS011;5728;42.722;23.258;2022-08-21T05:39:38;23.33;;;13.95;;
11346;SDS011;5728;42.722;23.258;2022-08-21T05:42:05;21.13;;;13.13;;
11346;SDS011;5728;42.722;23.258;2022-08-21T05:44:32;19.73;;;14.27;;
11346;SDS011;5728;42.722;23.258;2022-08-21T05:47:02;21.90;;;13.00;;
11346;SDS011;5728;42.722;23.258;2022-08-21T05:49:30;19.25;;;11.88;;
11346;SDS011;5728;42.722;23.258;2022-08-21T05:51:57;17.75;;;12.60;;
11346;SDS011;5728;42.722;23.258;2022-08-21T05:54:24;17.52;;;12.63;;
11346;SDS011;5728;42.722;23.258;2022-08-21T05:56:52;22.38;;;13.48;;
11346;SDS011;5728;42.722;23.258;2022-08-21T05:59:19;20.95;;;13.77;;
11346;SDS011;5728;42.722;23.258;2022-08-21T06:01:46;21.05;;;13.20;;
11346;SDS011;5728;42.722;23.258;2022-08-21T06:04:13;23.80;;;15.38;;
11346;SDS011;5728;42.722;23.258;2022-08-21T06:06:41;24.30;;;14.30;;
11346;SDS011;5728;42.722;23.258;2022-08-21T06:09:08;23.02;;;14.20;;
11346;SDS011;5728;42.722;23.258;2022-08-21T06:11:35;21.15;;;13.57;;
11346;SDS011;5728;42.722;23.258;2022-08-21T06:14:03;22.30;;;14.02;;
11346;SDS011;5728;42.722;23.258;2022-08-21T06:16:31;23.92;;;15.02;;
11346;SDS011;5728;42.722;23.258;2022-08-21T06:18:59;25.95;;;15.48;;
11346;SDS011;5728;42.722;23.258;2022-08-21T06:21:26;20.75;;;14.43;;
11346;SDS011;5728;42.722;23.258;2022-08-21T06:23:52;23.30;;;14.65;;
11346;SDS011;5728;42.722;23.258;2022-08-21T06:26:19;29.98;;;13.48;;
11346;SDS011;5728;42.722;23.258;2022-08-21T06:28:46;25.23;;;15.20;;
11346;SDS011;5728;42.722;23.258;2022-08-21T06:31:15;25.20;;;15.18;;
11346;SDS011;5728;42.722;23.258;2022-08-21T06:33:44;23.75;;;14.77;;
11346;SDS011;5728;42.722;23.258;2022-08-21T06:36:11;26.60;;;17.15;;
11346;SDS011;5728;42.722;23.258;2022-08-21T06:38:37;22.95;;;15.65;;
11346;SDS011;5728;42.722;23.258;2022-08-21T06:41:05;20.65;;;15.32;;
11346;SDS011;5728;42.722;23.258;2022-08-21T06:43:33;25.50;;;15.68;;
11346;SDS011;5728;42.722;23.258;2022-08-21T06:46:00;24.13;;;15.35;;
11346;SDS011;5728;42.722;23.258;2022-08-21T06:48:29;21.45;;;13.07;;
11346;SDS011;5728;42.722;23.258;2022-08-21T06:50:57;18.80;;;13.55;;
11346;SDS011;5728;42.722;23.258;2022-08-21T06:53:24;19.80;;;13.13;;
11346;SDS011;5728;42.722;23.258;2022-08-21T06:55:51;20.83;;;13.45;;
11346;SDS011;5728;42.722;23.258;2022-08-21T06:58:19;19.50;;;12.82;;
11346;SDS011;5728;42.722;23.258;2022-08-21T07:00:47;14.88;;;11.13;;
11346;SDS011;5728;42.722;23.258;2022-08-21T07:03:21;16.23;;;10.73;;
11346;SDS011;5728;42.722;23.258;2022-08-21T07:05:51;18.50;;;10.13;;
11346;SDS011;5728;42.722;23.258;2022-08-21T07:08:18;17.88;;;11.40;;
11346;SDS011;5728;42.722;23.258;2022-08-21T07:10:46;18.30;;;11.25;;
11346;SDS011;5728;42.722;23.258;2022-08-21T07:13:14;16.73;;;11.57;;
11346;SDS011;5728;42.722;23.258;2022-08-21T07:15:41;19.75;;;10.48;;
11346;SDS011;5728;42.722;23.258;2022-08-21T07:18:08;21.30;;;11.32;;
11346;SDS011;5728;42.722;23.258;2022-08-21T07:20:34;24.23;;;11.18;;
11346;SDS011;5728;42.722;23.258;2022-08-21T07:23:03;17.60;;;12.48;;
11346;SDS011;5728;42.722;23.258;2022-08-21T07:25:33;19.55;;;10.65;;
11346;SDS011;5728;42.722;23.258;2022-08-21T07:28:00;18.83;;;10.32;;
11346;SDS011;5728;42.722;23.258;2022-08-21T07:30:27;15.07;;;10.00;;
11346;SDS011;5728;42.722;23.258;2022-08-21T07:32:54;17.85;;;11.00;;
11346;SDS011;5728;42.722;23.258;2022-08-21T07:35:22;16.15;;;10.50;;
11346;SDS011;5728;42.722;23.258;2022-08-21T07:37:49;17.75;;;10.05;;
11346;SDS011;5728;42.722;23.258;2022-08-21T07:40:18;16.70;;;9.65;;
11346;SDS011;5728;42.722;23.258;2022-08-21T07:42:45;18.48;;;9.88;;
11346;SDS011;5728;42.722;23.258;2022-08-21T07:45:17;19.02;;;10.63;;
11346;SDS011;5728;42.722;23.258;2022-08-21T07:47:44;20.23;;;9.90;;
11346;SDS011;5728;42.722;23.258;2022-08-21T07:50:12;14.15;;;9.90;;
11346;SDS011;5728;42.722;23.258;2022-08-21T07:52:40;17.60;;;10.55;;
11346;SDS011;5728;42.722;23.258;2022-08-21T07:55:08;13.63;;;9.18;;
11346;SDS011;5728;42.722;23.258;2022-08-21T07:57:37;13.70;;;9.50;;
11346;SDS011;5728;42.722;23.258;2022-08-21T08:00:05;14.60;;;11.10;;
11346;SDS011;5728;42.722;23.258;2022-08-21T08:02:34;21.17;;;11.63;;
11346;SDS011;5728;42.722;23.258;2022-08-21T08:05:01;17.52;;;10.27;;
11346;SDS011;5728;42.722;23.258;2022-08-21T08:07:31;14.82;;;10.27;;
11346;SDS011;5728;42.722;23.258;2022-08-21T08:09:58;13.13;;;9.85;;
11346;SDS011;5728;42.722;23.258;2022-08-21T08:12:25;13.32;;;10.13;;
11346;SDS011;5728;42.722;23.258;2022-08-21T08:14:55;11.32;;;8.88;;
11346;SDS011;5728;42.722;23.258;2022-08-21T08:17:22;12.40;;;8.18;;
11346;SDS011;5728;42.722;23.258;2022-08-21T08:19:49;10.50;;;7.07;;
11346;SDS011;5728;42.722;23.258;2022-08-21T08:22:17;14.90;;;7.93;;
11346;SDS011;5728;42.722;23.258;2022-08-21T08:24:48;9.57;;;6.68;;
11346;SDS011;5728;42.722;23.258;2022-08-21T08:27:16;10.00;;;6.57;;
11346;SDS011;5728;42.722;23.258;2022-08-21T08:29:43;11.05;;;8.93;;
11346;SDS011;5728;42.722;23.258;2022-08-21T08:32:12;14.13;;;8.15;;
11346;SDS011;5728;42.722;23.258;2022-08-21T08:34:39;11.57;;;8.30;;
11346;SDS011;5728;42.722;23.258;2022-08-21T08:37:06;12.27;;;7.75;;
11346;SDS011;5728;42.722;23.258;2022-08-21T08:39:35;10.68;;;7.88;;
11346;SDS011;5728;42.722;23.258;2022-08-21T08:42:03;12.25;;;7.38;;
11346;SDS011;5728;42.722;23.258;2022-08-21T08:44:34;12.93;;;6.85;;
11346;SDS011;5728;42.722;23.258;2022-08-21T08:47:01;11.77;;;7.72;;
11346;SDS011;5728;42.722;23.258;2022-08-21T08:49:34;10.50;;;7.43;;
11346;SDS011;5728;42.722;23.258;2022-08-21T08:52:07;9.85;;;7.05;;
11346;SDS011;5728;42.722;23.258;2022-08-21T08:54:44;9.40;;;6.38;;
11346;SDS011;5728;42.722;23.258;2022-08-21T08:57:16;13.13;;;8.02;;
11346;SDS011;5728;42.722;23.258;2022-08-21T08:59:45;13.60;;;7.75;;
11346;SDS011;5728;42.722;23.258;2022-08-21T09:02:17;9.48;;;6.95;;
11346;SDS011;5728;42.722;23.258;2022-08-21T09:04:47;14.93;;;6.82;;
11346;SDS011;5728;42.722;23.258;2022-08-21T09:07:22;15.95;;;6.75;;
11346;SDS011;5728;42.722;23.258;2022-08-21T09:10:04;13.32;;;7.30;;
11346;SDS011;5728;42.722;23.258;2022-08-21T09:12:42;10.63;;;6.15;;
11346;SDS011;5728;42.722;23.258;2022-08-21T09:15:21;12.82;;;6.60;;
11346;SDS011;5728;42.722;23.258;2022-08-21T09:18:01;10.63;;;6.35;;
11346;SDS011;5728;42.722;23.258;2022-08-21T09:20:40;10.35;;;6.43;;
11346;SDS011;5728;42.722;23.258;2022-08-21T09:23:17;15.57;;;6.78;;
11346;SDS011;5728;42.722;23.258;2022-08-21T09:25:55;10.10;;;5.57;;
11346;SDS011;5728;42.722;23.258;2022-08-21T09:28:30;10.05;;;6.38;;
11346;SDS011;5728;42.722;23.258;2022-08-21T09:30:59;9.15;;;5.93;;
11346;SDS011;5728;42.722;23.258;2022-08-21T09:33:29;9.27;;;6.97;;
11346;SDS011;5728;42.722;23.258;2022-08-21T09:35:57;9.98;;;5.63;;
11346;SDS011;5728;42.722;23.258;2022-08-21T09:38:25;12.05;;;5.82;;
11346;SDS011;5728;42.722;23.258;2022-08-21T09:40:58;11.15;;;5.03;;
11346;SDS011;5728;42.722;23.258;2022-08-21T09:43:27;9.63;;;4.50;;
11346;SDS011;5728;42.722;23.258;2022-08-21T09:46:02;8.88;;;3.95;;
11346;SDS011;5728;42.722;23.258;2022-08-21T09:48:38;8.20;;;4.63;;
11346;SDS011;5728;42.722;23.258;2022-08-21T09:51:12;12.23;;;5.00;;
11346;SDS011;5728;42.722;23.258;2022-08-21T09:53:42;14.70;;;5.18;;
11346;SDS011;5728;42.722;23.258;2022-08-21T09:56:19;8.35;;;5.18;;
11346;SDS011;5728;42.722;23.258;2022-08-21T09:59:13;13.23;;;5.35;;
11346;SDS011;5728;42.722;23.258;2022-08-21T10:01:45;8.15;;;4.97;;
11346;SDS011;5728;42.722;23.258;2022-08-21T10:04:14;9.73;;;5.03;;
11346;SDS011;5728;42.722;23.258;2022-08-21T10:06:43;10.82;;;5.55;;
11346;SDS011;5728;42.722;23.258;2022-08-21T10:09:10;7.72;;;5.88;;
11346;SDS011;5728;42.722;23.258;2022-08-21T10:11:39;9.98;;;5.40;;
11346;SDS011;5728;42.722;23.258;2022-08-21T10:14:13;8.40;;;5.63;;
11346;SDS011;5728;42.722;23.258;2022-08-21T10:16:48;8.90;;;5.45;;
11346;SDS011;5728;42.722;23.258;2022-08-21T10:19:28;8.00;;;5.80;;
11346;SDS011;5728;42.722;23.258;2022-08-21T10:22:07;13.50;;;5.53;;
11346;SDS011;5728;42.722;23.258;2022-08-21T10:24:43;11.50;;;5.30;;
11346;SDS011;5728;42.722;23.258;2022-08-21T10:27:19;12.93;;;5.75;;
11346;SDS011;5728;42.722;23.258;2022-08-21T10:29:55;7.53;;;5.28;;
11346;SDS011;5728;42.722;23.258;2022-08-21T10:32:33;9.60;;;5.53;;
11346;SDS011;5728;42.722;23.258;2022-08-21T10:35:20;13.13;;;5.75;;
11346;SDS011;5728;42.722;23.258;2022-08-21T10:38:00;9.13;;;4.63;;
11346;SDS011;5728;42.722;23.258;2022-08-21T10:40:45;11.68;;;5.57;;
11346;SDS011;5728;42.722;23.258;2022-08-21T10:43:23;9.93;;;5.50;;
11346;SDS011;5728;42.722;23.258;2022-08-21T10:46:10;9.80;;;5.28;;
11346;SDS011;5728;42.722;23.258;2022-08-21T10:48:43;8.02;;;4.82;;
11346;SDS011;5728;42.722;23.258;2022-08-21T10:51:18;8.35;;;4.15;;
11346;SDS011;5728;42.722;23.258;2022-08-21T10:53:53;8.18;;;4.40;;
11346;SDS011;5728;42.722;23.258;2022-08-21T10:56:26;6.25;;;4.43;;
11346;SDS011;5728;42.722;23.258;2022-08-21T10:58:59;10.05;;;4.75;;
11346;SDS011;5728;42.722;23.258;2022-08-21T11:01:44;6.72;;;5.03;;
11346;SDS011;5728;42.722;23.258;2022-08-21T11:04:16;12.63;;;5.35;;
11346;SDS011;5728;42.722;23.258;2022-08-21T11:06:46;7.28;;;4.90;;
11346;SDS011;5728;42.722;23.258;2022-08-21T11:09:20;7.38;;;4.90;;
11346;SDS011;5728;42.722;23.258;2022-08-21T11:11:52;8.32;;;4.82;;
11346;SDS011;5728;42.722;23.258;2022-08-21T11:14:29;9.77;;;5.28;;
11346;SDS011;5728;42.722;23.258;2022-08-21T11:17:06;7.30;;;4.38;;
11346;SDS011;5728;42.722;23.258;2022-08-21T11:19:38;6.22;;;5.25;;
11346;SDS011;5728;42.722;23.258;2022-08-21T11:22:13;8.63;;;4.82;;
11346;SDS011;5728;42.722;23.258;2022-08-21T11:24:46;11.20;;;4.82;;
11346;SDS011;5728;42.722;23.258;2022-08-21T11:27:21;9.07;;;5.55;;
11346;SDS011;5728;42.722;23.258;2022-08-21T11:29:54;6.65;;;4.90;;
11346;SDS011;5728;42.722;23.258;2022-08-21T11:35:17;7.20;;;4.95;;
11346;SDS011;5728;42.722;23.258;2022-08-21T11:37:56;10.18;;;5.90;;
11346;SDS011;5728;42.722;23.258;2022-08-21T11:40:42;8.57;;;4.60;;
11346;SDS011;5728;42.722;23.258;2022-08-21T11:43:23;8.80;;;5.20;;
11346;SDS011;5728;42.722;23.258;2022-08-21T11:45:59;6.53;;;4.38;;
11346;SDS011;5728;42.722;23.258;2022-08-21T11:48:40;13.55;;;4.97;;
11346;SDS011;5728;42.722;23.258;2022-08-21T11:51:15;9.82;;;4.82;;
11346;SDS011;5728;42.722;23.258;2022-08-21T11:53:48;13.77;;;4.90;;
11346;SDS011;5728;42.722;23.258;2022-08-21T11:56:21;22.13;;;12.95;;
11346;SDS011;5728;42.722;23.258;2022-08-21T11:58:54;6.78;;;4.63;;
11346;SDS011;5728;42.722;23.258;2022-08-21T12:01:26;12.00;;;6.03;;
11346;SDS011;5728;42.722;23.258;2022-08-21T12:04:00;7.55;;;4.97;;
11346;SDS011;5728;42.722;23.258;2022-08-21T12:06:31;8.75;;;4.95;;
11346;SDS011;5728;42.722;23.258;2022-08-21T12:09:03;6.38;;;5.05;;
11346;SDS011;5728;42.722;23.258;2022-08-21T12:11:32;7.43;;;4.32;;
11346;SDS011;5728;42.722;23.258;2022-08-21T12:14:14;9.00;;;4.85;;
11346;SDS011;5728;42.722;23.258;2022-08-21T12:16:43;5.53;;;4.07;;
11346;SDS011;5728;42.722;23.258;2022-08-21T12:19:12;8.02;;;4.35;;
11346;SDS011;5728;42.722;23.258;2022-08-21T12:21:58;8.10;;;4.70;;
11346;SDS011;5728;42.722;23.258;2022-08-21T12:24:35;8.02;;;4.68;;
11346;SDS011;5728;42.722;23.258;2022-08-21T12:27:17;5.65;;;4.00;;
11346;SDS011;5728;42.722;23.258;2022-08-21T12:29:51;8.05;;;4.38;;
11346;SDS011;5728;42.722;23.258;2022-08-21T12:32:22;12.77;;;5.22;;
11346;SDS011;5728;42.722;23.258;2022-08-21T12:34:53;10.98;;;4.32;;
11346;SDS011;5728;42.722;23.258;2022-08-21T12:37:25;8.43;;;4.75;;
11346;SDS011;5728;42.722;23.258;2022-08-21T12:40:02;9.52;;;4.68;;
11346;SDS011;5728;42.722;23.258;2022-08-21T12:42:33;10.88;;;4.35;;
11346;SDS011;5728;42.722;23.258;2022-08-21T12:45:11;8.18;;;4.18;;
11346;SDS011;5728;42.722;23.258;2022-08-21T12:47:44;5.60;;;4.13;;
11346;SDS011;5728;42.722;23.258;2022-08-21T12:50:16;8.63;;;4.45;;
11346;SDS011;5728;42.722;23.258;2022-08-21T12:52:48;8.88;;;4.28;;
11346;SDS011;5728;42.722;23.258;2022-08-21T12:55:28;8.27;;;5.30;;
11346;SDS011;5728;42.722;23.258;2022-08-21T12:57:59;10.23;;;5.30;;
11346;SDS011;5728;42.722;23.258;2022-08-21T13:00:27;5.97;;;4.32;;
11346;SDS011;5728;42.722;23.258;2022-08-21T13:02:55;9.30;;;4.70;;
11346;SDS011;5728;42.722;23.258;2022-08-21T13:05:27;8.10;;;4.85;;
11346;SDS011;5728;42.722;23.258;2022-08-21T13:07:57;9.48;;;4.82;;
11346;SDS011;5728;42.722;23.258;2022-08-21T13:10:25;10.07;;;4.95;;
11346;SDS011;5728;42.722;23.258;2022-08-21T13:12:54;11.65;;;4.63;;
11346;SDS011;5728;42.722;23.258;2022-08-21T13:15:25;7.03;;;4.60;;
11346;SDS011;5728;42.722;23.258;2022-08-21T13:17:54;13.93;;;4.60;;
11346;SDS011;5728;42.722;23.258;2022-08-21T13:20:27;7.63;;;4.47;;
11346;SDS011;5728;42.722;23.258;2022-08-21T13:22:56;10.82;;;4.78;;
11346;SDS011;5728;42.722;23.258;2022-08-21T13:25:25;7.63;;;5.38;;
11346;SDS011;5728;42.722;23.258;2022-08-21T13:27:58;6.10;;;4.35;;
11346;SDS011;5728;42.722;23.258;2022-08-21T13:30:28;10.80;;;4.97;;
11346;SDS011;5728;42.722;23.258;2022-08-21T13:32:56;8.00;;;4.55;;
11346;SDS011;5728;42.722;23.258;2022-08-21T13:35:28;6.25;;;4.85;;
11346;SDS011;5728;42.722;23.258;2022-08-21T13:37:57;8.32;;;4.60;;
11346;SDS011;5728;42.722;23.258;2022-08-21T13:40:26;9.65;;;4.60;;
11346;SDS011;5728;42.722;23.258;2022-08-21T13:42:56;9.52;;;4.57;;
11346;SDS011;5728;42.722;23.258;2022-08-21T13:45:26;7.43;;;4.70;;
11346;SDS011;5728;42.722;23.258;2022-08-21T13:47:57;9.60;;;4.43;;
11346;SDS011;5728;42.722;23.258;2022-08-21T13:50:26;11.10;;;4.72;;
11346;SDS011;5728;42.722;23.258;2022-08-21T13:52:58;6.03;;;4.50;;
11346;SDS011;5728;42.722;23.258;2022-08-21T13:55:34;13.15;;;6.03;;
11346;SDS011;5728;42.722;23.258;2022-08-21T13:58:03;6.15;;;3.90;;
11346;SDS011;5728;42.722;23.258;2022-08-21T14:00:33;8.38;;;4.30;;
11346;SDS011;5728;42.722;23.258;2022-08-21T14:03:09;8.18;;;5.05;;
11346;SDS011;5728;42.722;23.258;2022-08-21T14:05:38;7.20;;;4.00;;
11346;SDS011;5728;42.722;23.258;2022-08-21T14:08:11;8.38;;;4.18;;
11346;SDS011;5728;42.722;23.258;2022-08-21T14:10:41;6.78;;;4.72;;
11346;SDS011;5728;42.722;23.258;2022-08-21T14:13:21;6.90;;;3.97;;
11346;SDS011;5728;42.722;23.258;2022-08-21T14:15:58;7.50;;;4.75;;
11346;SDS011;5728;42.722;23.258;2022-08-21T14:18:26;10.15;;;4.10;;
11346;SDS011;5728;42.722;23.258;2022-08-21T14:21:03;10.70;;;5.22;;
11346;SDS011;5728;42.722;23.258;2022-08-21T14:23:31;9.02;;;5.63;;
11346;SDS011;5728;42.722;23.258;2022-08-21T14:25:58;6.63;;;4.18;;
11346;SDS011;5728;42.722;23.258;2022-08-21T14:28:28;9.18;;;3.78;;
11346;SDS011;5728;42.722;23.258;2022-08-21T14:30:59;7.63;;;4.32;;
11346;SDS011;5728;42.722;23.258;2022-08-21T14:33:38;7.60;;;4.20;;
11346;SDS011;5728;42.722;23.258;2022-08-21T14:36:05;5.68;;;4.13;;
11346;SDS011;5728;42.722;23.258;2022-08-21T14:38:34;6.88;;;4.07;;
11346;SDS011;5728;42.722;23.258;2022-08-21T14:41:03;6.68;;;3.80;;
11346;SDS011;5728;42.722;23.258;2022-08-21T14:43:33;8.25;;;3.38;;
11346;SDS011;5728;42.722;23.258;2022-08-21T14:46:01;7.10;;;3.58;;
11346;SDS011;5728;42.722;23.258;2022-08-21T14:48:28;9.90;;;3.92;;
11346;SDS011;5728;42.722;23.258;2022-08-21T14:50:55;5.55;;;4.30;;
11346;SDS011;5728;42.722;23.258;2022-08-21T14:53:22;4.90;;;4.30;;